Time;durP1;ratioP1;P1;durP2;ratioP2;P2;SDS_P1;SDS_P2;PMS_P1;PMS_P2;Temp;Humidity;BMP_temperature;BMP_pressure;BME280_temperature;BME280_humidity;BME280_pressure;Samples;Min_cycle;Max_cycle;Signal;HPM_P1;HPM_P2
2022/11/19 00:01:17;;;;;;;;;;;;;;;;;;5017952;28;7135;-73
2022/11/19 00:03:44;;;;;;;;;;;;;;;;;;5018212;28;6951;-74
2022/11/19 00:06:12;;;;;;;;;;;;;;;;;;5019015;28;6835;-74
2022/11/19 00:08:38;;;;;;;;;;;;;;;;;;5018244;28;7229;-72
2022/11/19 00:11:07;;;;;;;;;;;;;;;;;;5018086;28;7133;-74
2022/11/19 00:13:33;;;;;;;;;;;;;;;;;;5018404;28;7189;-73
2022/11/19 00:16:03;;;;;;;;;;;;;;;;;;5018089;28;7124;-72
2022/11/19 00:18:29;;;;;;;;;;;;;;;;;;5018230;28;7540;-73
2022/11/19 00:21:00;;;;;;;;;;;;;;;;;;5018169;28;6817;-73
2022/11/19 00:23:25;;;;;;;;;;;;;;;;;;5017369;28;8659;-72
2022/11/19 00:26:08;;;;;;;;;;;;;;;;;;5018051;28;7916;-73
2022/11/19 00:28:34;;;;;;;;;;;;;;;;;;5017690;28;7360;-74
2022/11/19 00:31:16;;;;;;;;;;;;;;;;;;5017920;28;7011;-74
2022/11/19 00:33:42;;;;;;;;;;;;;;;;;;5018085;28;7229;-74
2022/11/19 00:36:21;;;;;;;;;;;;;;;;;;5017624;28;7074;-74
2022/11/19 00:38:47;;;;;;;;;;;;;;;;;;5017948;28;6959;-74
2022/11/19 00:41:15;;;;;;;;;;;;;;;;;;5018019;28;7414;-74
2022/11/19 00:43:46;;;;;;;;;;;;;;;;;;5018094;28;7075;-74
2022/11/19 00:46:13;;;;;;;;;;;;;;;;;;5018779;28;6935;-74
2022/11/19 00:48:38;;;;;;;;;;;;;;;;;;5018326;28;7183;-73
2022/11/19 00:51:10;;;;;;;;;;;;;;;;;;5017950;28;6947;-74
2022/11/19 00:53:36;;;;;;;;;;;;;;;;;;5017540;28;7412;-74
2022/11/19 00:56:03;;;;;;;;;;;;;;;;;;5017348;28;7046;-75
2022/11/19 00:58:36;;;;;;;;;;;;;;;;;;5017305;28;7095;-75
2022/11/19 01:01:03;;;;;;;;;;;;;;;;;;5017246;28;7382;-74
2022/11/19 01:03:29;;;;;;;;;;;;;;;;;;5017344;28;7472;-74
2022/11/19 01:05:54;;;;;;;;;;;;;;;;;;5017051;28;6946;-73
2022/11/19 01:08:20;;;;;;;;;;;;;;;;;;5017581;28;7059;-74
2022/11/19 01:10:47;;;;;;;;;;;;;;;;;;5017193;28;6880;-74
2022/11/19 01:15:57;;;;;;;;;;;;;;;;;;5017478;28;6817;-73
2022/11/19 01:18:23;;;;;;;;;;;;;;;;;;5017222;28;7632;-74
2022/11/19 01:20:48;;;;;;;;;;;;;;;;;;5016906;28;7341;-73
2022/11/19 01:23:14;;;;;;;;;;;;;;;;;;5018289;28;7127;-73
2022/11/19 01:25:41;;;;;;;;;;;;;;;;;;5017900;28;7062;-74
2022/11/19 01:28:10;;;;;;;;;;;;;;;;;;5016897;28;7250;-74
2022/11/19 01:30:39;;;;;;;;;;;;;;;;;;5017261;28;6820;-74
2022/11/19 01:33:05;;;;;;;;;;;;;;;;;;5017487;28;6938;-74
2022/11/19 01:35:31;;;;;;;;;;;;;;;;;;5016670;28;7145;-74
2022/11/19 01:37:59;;;;;;;;;;;;;;;;;;5016458;28;7165;-74
2022/11/19 01:40:28;;;;;;;;;;;;;;;;;;5016942;28;7242;-74
2022/11/19 01:42:54;;;;;;;;;;;;;;;;;;5016923;28;6996;-74
2022/11/19 01:48:29;;;;;;;;;;;;;;;;;;5016635;28;6691;-75
2022/11/19 01:51:01;;;;;;;;;;;;;;;;;;5016402;28;7225;-74
2022/11/19 01:53:30;;;;;;;;;;;;;;;;;;5016968;28;7335;-75
2022/11/19 01:56:02;;;;;;;;;;;;;;;;;;5016134;28;6848;-75
2022/11/19 01:58:43;;;;;;;;;;;;;;;;;;5016338;28;7220;-75
2022/11/19 02:01:09;;;;;;;;;;;;;;;;;;5016236;28;7521;-75
2022/11/19 02:04:12;;;;;;;;;;;;;;;;;;5016238;28;7321;-75
2022/11/19 02:06:38;;;;;;;;;;;;;;;;;;5016022;28;7553;-75
2022/11/19 02:09:06;;;;;;;;;;;;;;;;;;5015915;28;7022;-75
2022/11/19 02:11:47;;;;;;;;;;;;;;;;;;5014209;28;8557;-75
2022/11/19 02:14:13;;;;;;;;;;;;;;;;;;5016208;28;7204;-75
2022/11/19 02:16:52;;;;;;;;;;;;;;;;;;5015966;28;6992;-75
2022/11/19 02:19:20;;;;;;;;;;;;;;;;;;5016113;28;6837;-75
2022/11/19 02:22:14;;;;;;;;;;;;;;;;;;5015956;28;6839;-74
2022/11/19 02:24:47;;;;;;;;;;;;;;;;;;5016235;28;6979;-74
2022/11/19 02:27:45;;;;;;;;;;;;;;;;;;5015508;28;7074;-73
2022/11/19 02:30:15;;;;;;;;;;;;;;;;;;5016725;28;6973;-74
2022/11/19 02:32:44;;;;;;;;;;;;;;;;;;5016997;28;7245;-74
2022/11/19 02:35:21;;;;;;;;;;;;;;;;;;5015992;28;7010;-74
2022/11/19 02:44:57;;;;;;;;;;;;;;;;;;5014576;28;6683;-76
2022/11/19 02:47:10;;;;;;;;;;;;;;;;;;5013830;28;7388;-75
2022/11/19 02:49:41;;;;;;;;;;;;;;;;;;5013036;28;7186;-76
2022/11/19 02:52:08;;;;;;;;;;;;;;;;;;5013761;28;7258;-76
2022/11/19 02:54:33;;;;;;;;;;;;;;;;;;5013424;28;8356;-75
2022/11/19 02:57:14;;;;;;;;;;;;;;;;;;5013208;28;7398;-75
2022/11/19 03:05:15;;;;;;;;;;;;;;;;;;5013288;28;7090;-76
2022/11/19 03:07:47;;;;;;;;;;;;;;;;;;5013339;28;7243;-76
2022/11/19 03:10:16;;;;;;;;;;;;;;;;;;5012707;28;7195;-76
2022/11/19 03:12:45;;;;;;;;;;;;;;;;;;5012628;28;7197;-77
2022/11/19 03:18:14;;;;;;;;;;;;;;;;;;5014583;28;6914;-76
2022/11/19 03:20:54;;;;;;;;;;;;;;;;;;5020679;28;6822;-76
2022/11/19 03:23:28;;;;;;;;;;;;;;;;;;5014588;28;7084;-75
2022/11/19 03:25:59;;;;;;;;;;;;;;;;;;5034348;28;6951;-76
2022/11/19 03:28:32;;;;;;;;;;;;;;;;;;5020080;28;7272;-77
2022/11/19 03:31:14;;;;;;;;;;;;;;;;;;5015366;28;7185;-75
2022/11/19 03:33:43;;;;;;;;;;;;;;;;;;5014729;28;7288;-76
2022/11/19 03:36:40;;;;;;;;;;;;;;;;;;5015275;28;6933;-76
2022/11/19 03:39:12;;;;;;;;;;;;;;;;;;5015404;28;6964;-75
2022/11/19 03:41:39;;;;;;;;;;;;;;;;;;5015273;28;7192;-76
2022/11/19 03:44:22;;;;;;;;;;;;;;;;;;5014978;28;7171;-75
2022/11/19 03:46:52;;;;;;;;;;;;;;;;;;5014287;28;7075;-76
2022/11/19 03:49:23;;;;;;;;;;;;;;;;;;5014450;28;7277;-74
2022/11/19 03:52:06;;;;;;;;;;;;;;;;;;5015144;28;7204;-76
2022/11/19 03:54:31;;;;;;;;;;;;;;;;;;5014723;28;7101;-76
2022/11/19 03:57:07;;;;;;;;;;;;;;;;;;5014236;28;6837;-76
2022/11/19 03:59:33;;;;;;;;;;;;;;;;;;5014364;28;7411;-76
2022/11/19 04:02:08;;;;;;;;;;;;;;;;;;5014672;28;6956;-76
2022/11/19 04:04:37;;;;;;;;;;;;;;;;;;5014642;28;6961;-75
2022/11/19 04:07:15;;;;;;;;;;;;;;;;;;5015932;28;6946;-76
2022/11/19 04:09:41;;;;;;;;;;;;;;;;;;5014472;28;6986;-76
2022/11/19 04:12:13;;;;;;;;;;;;;;;;;;5014654;28;7329;-75
2022/11/19 04:14:39;;;;;;;;;;;;;;;;;;5014810;28;7038;-75
2022/11/19 04:17:04;;;;;;;;;;;;;;;;;;5014205;28;7365;-75
2022/11/19 04:19:43;;;;;;;;;;;;;;;;;;5014216;28;6857;-82
2022/11/19 04:22:09;;;;;;;;;;;;;;;;;;5015467;28;7290;-83
2022/11/19 04:27:37;;;;;;;;;;;;;;;;;;5014581;28;6930;-83
2022/11/19 04:30:03;;;;;;;;;;;;;;;;;;5014731;28;7333;-82
2022/11/19 04:35:47;;;;;;;;;;;;;;;;;;5016887;28;6899;-82
2022/11/19 04:38:22;;;;;;;;;;;;;;;;;;5017932;28;7124;-80
2022/11/19 04:40:48;;;;;;;;;;;;;;;;;;5017693;28;7205;-81
2022/11/19 04:43:14;;;;;;;;;;;;;;;;;;5017691;28;6944;-80
2022/11/19 04:45:48;;;;;;;;;;;;;;;;;;5017602;28;7055;-81
2022/11/19 04:48:14;;;;;;;;;;;;;;;;;;5017719;28;6979;-81
2022/11/19 04:50:56;;;;;;;;;;;;;;;;;;5018248;28;7074;-83
2022/11/19 04:53:21;;;;;;;;;;;;;;;;;;5017819;28;7002;-82
2022/11/19 04:55:47;;;;;;;;;;;;;;;;;;5018094;28;6966;-83
2022/11/19 04:58:18;;;;;;;;;;;;;;;;;;5018037;28;7308;-81
2022/11/19 05:00:43;;;;;;;;;;;;;;;;;;5017997;28;6863;-79
2022/11/19 05:03:09;;;;;;;;;;;;;;;;;;5017595;28;6919;-82
2022/11/19 05:05:34;;;;;;;;;;;;;;;;;;5018228;28;7243;-82
2022/11/19 05:08:01;;;;;;;;;;;;;;;;;;5017667;28;6928;-81
2022/11/19 05:10:27;;;;;;;;;;;;;;;;;;5016052;28;7499;-80
2022/11/19 05:12:52;;;;;;;;;;;;;;;;;;5017531;28;7391;-82
2022/11/19 05:15:20;;;;;;;;;;;;;;;;;;5018192;28;7031;-84
2022/11/19 05:17:46;;;;;;;;;;;;;;;;;;5017536;28;7182;-75
2022/11/19 05:20:32;;;;;;;;;;;;;;;;;;5017016;28;7246;-76
2022/11/19 05:22:58;;;;;;;;;;;;;;;;;;5018245;28;7215;-76
2022/11/19 05:25:23;;;;;;;;;;;;;;;;;;5017166;28;6873;-77
2022/11/19 05:27:51;;;;;;;;;;;;;;;;;;5017189;28;7087;-77
2022/11/19 05:30:26;;;;;;;;;;;;;;;;;;5017016;28;6820;-77
2022/11/19 05:32:52;;;;;;;;;;;;;;;;;;5017091;28;7460;-77
2022/11/19 05:35:17;;;;;;;;;;;;;;;;;;5016331;28;6804;-76
2022/11/19 05:37:43;;;;;;;;;;;;;;;;;;5029320;28;6884;-77
2022/11/19 05:40:11;;;;;;;;;;;;;;;;;;5031416;28;7105;-77
2022/11/19 05:42:37;;;;;;;;;;;;;;;;;;5029854;28;7143;-77
2022/11/19 05:45:26;;;;;;;;;;;;;;;;;;5021477;28;6994;-77
2022/11/19 05:47:54;;;;;;;;;;;;;;;;;;5022876;28;7115;-77
2022/11/19 05:50:20;;;;;;;;;;;;;;;;;;5026768;28;7128;-77
2022/11/19 05:53:04;;;;;;;;;;;;;;;;;;5030803;28;7273;-77
2022/11/19 05:55:30;;;;;;;;;;;;;;;;;;5034984;28;7175;-77
2022/11/19 05:58:01;;;;;;;;;;;;;;;;;;5034051;28;7501;-78
2022/11/19 06:00:27;;;;;;;;;;;;;;;;;;5033035;28;7001;-76
2022/11/19 06:02:52;;;;;;;;;;;;;;;;;;5033724;28;7105;-77
2022/11/19 06:05:18;;;;;;;;;;;;;;;;;;5029325;28;7246;-77
2022/11/19 06:08:08;;;;;;;;;;;;;;;;;;5034310;28;7225;-78
2022/11/19 06:10:33;;;;;;;;;;;;;;;;;;5035737;28;6826;-84
2022/11/19 06:13:04;;;;;;;;;;;;;;;;;;5036478;28;7226;-83
2022/11/19 06:15:30;;;;;;;;;;;;;;;;;;5031449;28;7234;-85
2022/11/19 06:18:02;;;;;;;;;;;;;;;;;;5015623;28;6962;-86
2022/11/19 06:20:27;;;;;;;;;;;;;;;;;;5016192;28;7029;-84
2022/11/19 06:22:53;;;;;;;;;;;;;;;;;;5017167;28;7003;-83
2022/11/19 06:25:20;;;;;;;;;;;;;;;;;;5016669;28;7198;-85
2022/11/19 06:27:45;;;;;;;;;;;;;;;;;;5017194;28;7059;-83
2022/11/19 06:30:13;;;;;;;;;;;;;;;;;;5018519;28;6955;-85
2022/11/19 06:32:38;;;;;;;;;;;;;;;;;;5014715;28;8479;-83
2022/11/19 06:35:04;;;;;;;;;;;;;;;;;;5016296;28;6935;-86
2022/11/19 06:37:30;;;;;;;;;;;;;;;;;;5015736;28;7022;-78
2022/11/19 06:39:56;;;;;;;;;;;;;;;;;;5015763;28;7168;-82
2022/11/19 06:42:40;;;;;;;;;;;;;;;;;;5020911;28;7274;-86
2022/11/19 06:45:11;;;;;;;;;;;;;;;;;;5035063;28;7098;-84
2022/11/19 06:50:55;;;;;;;;;;;;;;;;;;5035110;28;7031;-89
2022/11/19 06:53:21;;;;;;;;;;;;;;;;;;5034854;28;7396;-86
2022/11/19 06:58:50;;;;;;;;;;;;;;;;;;5034598;28;6678;-86
2022/11/19 07:01:16;;;;;;;;;;;;;;;;;;5035041;28;7047;-91
2022/11/19 07:04:14;;;;;;;;;;;;;;;;;;5034724;28;7950;-90
2022/11/19 07:06:39;;;;;;;;;;;;;;;;;;5027196;28;7255;-85
2022/11/19 07:09:22;;;;;;;;;;;;;;;;;;5013201;28;7042;-83
2022/11/19 07:11:47;;;;;;;;;;;;;;;;;;5014073;28;6947;-84
2022/11/19 07:14:51;;;;;;;;;;;;;;;;;;5014888;28;7502;-88
2022/11/19 07:17:16;;;;;;;;;;;;;;;;;;5012900;28;6881;-85
2022/11/19 07:19:49;;;;;;;;;;;;;;;;;;5012920;28;7103;-85
2022/11/19 07:22:14;;;;;;;;;;;;;;;;;;5012843;28;7141;-84
2022/11/19 07:24:41;;;;;;;;;;;;;;;;;;5012875;28;6987;-87
2022/11/19 07:27:06;;;;;;;;;;;;;;;;;;5011853;28;7217;-83
2022/11/19 07:29:52;;;;;;;;;;;;;;;;;;5012687;28;7163;-83
2022/11/19 07:32:17;;;;;;;;;;;;;;;;;;5012649;28;7160;-86
2022/11/19 07:37:45;;;;;;;;;;;;;;;;;;5008552;28;6677;-86
2022/11/19 07:40:13;;;;;;;;;;;;;;;;;;5012712;28;7060;-86
2022/11/19 07:45:41;;;;;;;;;;;;;;;;;;5032734;28;6971;-83
2022/11/19 07:48:40;;;;;;;;;;;;;;;;;;5023046;28;7024;-85
2022/11/19 07:51:05;;;;;;;;;;;;;;;;;;5012553;28;7336;-83
2022/11/19 07:53:48;;;;;;;;;;;;;;;;;;5014876;28;7371;-87
2022/11/19 07:56:14;;;;;;;;;;;;;;;;;;5014687;28;7342;-80
2022/11/19 07:58:49;;;;;;;;;;;;;;;;;;5014611;28;7097;-89
2022/11/19 08:01:17;;;;;;;;;;;;;;;;;;5014669;28;7178;-89
2022/11/19 08:03:50;;;;;;;;;;;;;;;;;;5014634;28;6918;-81
2022/11/19 08:06:17;;;;;;;;;;;;;;;;;;5016612;28;7028;-86
2022/11/19 08:08:51;;;;;;;;;;;;;;;;;;5033896;28;6952;-66
2022/11/19 08:11:17;;;;;;;;;;;;;;;;;;5038053;28;7019;-88
2022/11/19 08:14:11;;;;;;;;;;;;;;;;;;5038117;28;7399;-86
2022/11/19 08:22:41;;;;;;;;;;;;;;;;;;5037541;28;6979;-84
2022/11/19 08:25:07;;;;;;;;;;;;;;;;;;5037988;28;6899;-72
2022/11/19 08:28:10;;;;;;;;;;;;;;;;;;5037765;28;7048;-86
2022/11/19 08:30:38;;;;;;;;;;;;;;;;;;5037293;28;7224;-84
2022/11/19 08:33:07;;;;;;;;;;;;;;;;;;5037990;28;7270;-83
2022/11/19 08:35:33;;;;;;;;;;;;;;;;;;5037709;28;8272;-86
2022/11/19 08:38:02;;;;;;;;;;;;;;;;;;5037108;28;7125;-90
2022/11/19 08:43:51;;;;;;;;;;;;;;;;;;5023078;28;6681;-86
2022/11/19 08:46:16;;;;;;;;;;;;;;;;;;5017618;28;7207;-84
2022/11/19 08:51:47;;;;;;;;;;;;;;;;;;5017275;28;6745;-88
2022/11/19 08:54:12;;;;;;;;;;;;;;;;;;5017665;28;7028;-84
2022/11/19 08:56:41;;;;;;;;;;;;;;;;;;5017503;28;7034;-87
2022/11/19 08:59:14;;;;;;;;;;;;;;;;;;5017078;28;7108;-84
2022/11/19 09:01:39;;;;;;;;;;;;;;;;;;5017427;28;7150;-87
2022/11/19 09:04:11;;;;;;;;;;;;;;;;;;5016929;28;7019;-84
2022/11/19 09:06:37;;;;;;;;;;;;;;;;;;5017111;28;7002;-82
2022/11/19 09:09:17;;;;;;;;;;;;;;;;;;5016955;28;7001;-87
2022/11/19 09:11:43;;;;;;;;;;;;;;;;;;5016141;28;7861;-84
2022/11/19 09:14:18;;;;;;;;;;;;;;;;;;5017061;28;6925;-82
2022/11/19 09:16:44;;;;;;;;;;;;;;;;;;5015212;28;7335;-78
2022/11/19 09:19:11;;;;;;;;;;;;;;;;;;5016363;28;7366;-78
2022/11/19 09:21:37;;;;;;;;;;;;;;;;;;5028984;28;6824;-78
2022/11/19 09:24:17;;;;;;;;;;;;;;;;;;5036619;28;7265;-78
2022/11/19 09:26:43;;;;;;;;;;;;;;;;;;5035580;28;7108;-79
2022/11/19 09:29:10;;;;;;;;;;;;;;;;;;5036257;28;7153;-80
2022/11/19 09:31:36;;;;;;;;;;;;;;;;;;5035835;28;7213;-78
2022/11/19 09:34:03;;;;;;;;;;;;;;;;;;5036016;28;6912;-83
2022/11/19 09:36:28;;;;;;;;;;;;;;;;;;5035957;28;7421;-80
2022/11/19 09:38:57;;;;;;;;;;;;;;;;;;5035729;28;6997;-78
2022/11/19 09:41:29;;;;;;;;;;;;;;;;;;5035751;28;7596;-84
2022/11/19 09:44:01;;;;;;;;;;;;;;;;;;5036098;28;7255;-83
2022/11/19 09:52:58;;;;;;;;;;;;;;;;;;5035587;28;6698;-81
2022/11/19 09:55:33;;;;;;;;;;;;;;;;;;5035762;28;7067;-83
2022/11/19 09:58:19;;;;;;;;;;;;;;;;;;5035994;28;7210;-85
2022/11/19 10:00:45;;;;;;;;;;;;;;;;;;5035095;28;7270;-80
2022/11/19 10:03:29;;;;;;;;;;;;;;;;;;5034431;28;7253;-81
2022/11/19 10:09:01;;;;;;;;;;;;;;;;;;5035523;28;6789;-85
2022/11/19 10:11:30;;;;;;;;;;;;;;;;;;5035595;28;7054;-82
2022/11/19 10:17:17;;;;;;;;;;;;;;;;;;5015615;28;6947;-82
2022/11/19 10:20:11;;;;;;;;;;;;;;;;;;5026527;28;6944;-85
2022/11/19 10:22:51;;;;;;;;;;;;;;;;;;5035570;28;7181;-84
2022/11/19 10:28:35;;;;;;;;;;;;;;;;;;5035203;28;7036;-86
2022/11/19 10:31:22;;;;;;;;;;;;;;;;;;5035353;28;7072;-83
2022/11/19 10:33:54;;;;;;;;;;;;;;;;;;5034838;28;9085;-80
2022/11/19 10:36:55;;;;;;;;;;;;;;;;;;5035355;28;7163;-78
2022/11/19 10:39:50;;;;;;;;;;;;;;;;;;5014772;28;7218;-79
2022/11/19 10:42:17;;;;;;;;;;;;;;;;;;5033973;28;7088;-79
2022/11/19 10:47:52;;;;;;;;;;;;;;;;;;5034690;28;6933;-79
2022/11/19 10:50:19;;;;;;;;;;;;;;;;;;5034744;28;7214;-79
2022/11/19 10:52:52;;;;;;;;;;;;;;;;;;5034878;28;7064;-77
2022/11/19 10:55:43;;;;;;;;;;;;;;;;;;5035818;28;6914;-79
2022/11/19 10:58:26;;;;;;;;;;;;;;;;;;5035336;28;7312;-77
2022/11/19 11:01:17;;;;;;;;;;;;;;;;;;5034728;28;6865;-79
2022/11/19 11:03:49;;;;;;;;;;;;;;;;;;5034697;28;6818;-79
2022/11/19 11:06:26;;;;;;;;;;;;;;;;;;5034440;28;7365;-79
2022/11/19 11:08:54;;;;;;;;;;;;;;;;;;5034261;28;7123;-79
2022/11/19 11:14:50;;;;;;;;;;;;;;;;;;5034353;28;7091;-78
2022/11/19 11:17:17;;;;;;;;;;;;;;;;;;5034861;28;6805;-79
2022/11/19 11:19:42;;;;;;;;;;;;;;;;;;5034445;28;6981;-79
2022/11/19 11:22:39;;;;;;;;;;;;;;;;;;5034480;28;7160;-79
2022/11/19 11:25:37;;;;;;;;;;;;;;;;;;5034273;28;7122;-78
2022/11/19 11:28:05;;;;;;;;;;;;;;;;;;5034297;28;7514;-78
2022/11/19 11:30:53;;;;;;;;;;;;;;;;;;5034221;28;7420;-79
2022/11/19 11:33:28;;;;;;;;;;;;;;;;;;5034012;28;6997;-81
2022/11/19 11:35:57;;;;;;;;;;;;;;;;;;5020694;28;7441;-79
2022/11/19 11:38:25;;;;;;;;;;;;;;;;;;5013867;28;7250;-80
2022/11/19 11:44:01;;;;;;;;;;;;;;;;;;5014724;28;7022;-79
2022/11/19 11:46:33;;;;;;;;;;;;;;;;;;5019251;28;7205;-79
2022/11/19 11:49:27;;;;;;;;;;;;;;;;;;5017947;28;7222;-79
2022/11/19 11:52:08;;;;;;;;;;;;;;;;;;5018383;28;7075;-78
2022/11/19 12:00:41;;;;;;;;;;;;;;;;;;5017998;28;6706;-78
2022/11/19 12:03:12;;;;;;;;;;;;;;;;;;5017824;28;7210;-78
2022/11/19 12:05:41;;;;;;;;;;;;;;;;;;5018271;28;7064;-79
2022/11/19 12:08:37;;;;;;;;;;;;;;;;;;5017735;28;6914;-79
2022/11/19 12:13:56;;;;;;;;;;;;;;;;;;5038104;28;6956;-79
2022/11/19 12:16:40;;;;;;;;;;;;;;;;;;5036509;28;8404;-78
2022/11/19 12:19:12;;;;;;;;;;;;;;;;;;5037984;28;7051;-78
2022/11/19 12:21:57;;;;;;;;;;;;;;;;;;5037991;28;7102;-78
2022/11/19 12:24:28;;;;;;;;;;;;;;;;;;5038412;28;6997;-79
2022/11/19 12:26:55;;;;;;;;;;;;;;;;;;5037840;28;6948;-78
2022/11/19 12:29:30;;;;;;;;;;;;;;;;;;5037972;28;6982;-78
2022/11/19 12:31:58;;;;;;;;;;;;;;;;;;5037936;28;7002;-78
2022/11/19 12:34:37;;;;;;;;;;;;;;;;;;5037579;28;7077;-78
2022/11/19 12:37:21;;;;;;;;;;;;;;;;;;5036239;28;8512;-77
2022/11/19 12:43:05;;;;;;;;;;;;;;;;;;5038083;28;6994;-79
2022/11/19 12:45:50;;;;;;;;;;;;;;;;;;5037355;28;7406;-79
2022/11/19 12:48:15;;;;;;;;;;;;;;;;;;5037736;28;7075;-79
2022/11/19 12:51:05;;;;;;;;;;;;;;;;;;5037120;28;7202;-79
2022/11/19 12:53:37;;;;;;;;;;;;;;;;;;5037617;28;7390;-78
2022/11/19 12:56:09;;;;;;;;;;;;;;;;;;5036318;28;6975;-78
2022/11/19 12:58:35;;;;;;;;;;;;;;;;;;5037695;28;7346;-82
2022/11/19 13:01:10;;;;;;;;;;;;;;;;;;5037322;28;6923;-81
2022/11/19 13:03:35;;;;;;;;;;;;;;;;;;5037111;28;7829;-79
2022/11/19 13:06:15;;;;;;;;;;;;;;;;;;5037845;28;7382;-81
2022/11/19 13:08:57;;;;;;;;;;;;;;;;;;5036587;28;6827;-80
2022/11/19 13:11:45;;;;;;;;;;;;;;;;;;5037237;28;8320;-79
2022/11/19 13:14:17;;;;;;;;;;;;;;;;;;5027994;28;7165;-79
2022/11/19 13:16:55;;;;;;;;;;;;;;;;;;5016156;28;7935;-80
2022/11/19 13:19:25;;;;;;;;;;;;;;;;;;5017550;28;7135;-77
2022/11/19 13:21:56;;;;;;;;;;;;;;;;;;5016632;28;6938;-79
2022/11/19 13:24:55;;;;;;;;;;;;;;;;;;5016741;28;7456;-80
2022/11/19 13:27:24;;;;;;;;;;;;;;;;;;5017195;28;7135;-79
2022/11/19 13:29:57;;;;;;;;;;;;;;;;;;5017297;28;7222;-78
2022/11/19 13:32:41;;;;;;;;;;;;;;;;;;5017077;28;7217;-79
2022/11/19 13:35:12;;;;;;;;;;;;;;;;;;5016734;28;7395;-77
2022/11/19 13:37:57;;;;;;;;;;;;;;;;;;5016218;28;6885;-79
2022/11/19 13:40:28;;;;;;;;;;;;;;;;;;5016202;28;7201;-77
2022/11/19 13:49:24;;;;;;;;;;;;;;;;;;5016132;28;6674;-79
2022/11/19 13:51:54;;;;;;;;;;;;;;;;;;5016310;28;7011;-80
2022/11/19 13:54:54;;;;;;;;;;;;;;;;;;5016293;28;6973;-79
2022/11/19 13:57:36;;;;;;;;;;;;;;;;;;5016167;28;7242;-79
2022/11/19 14:03:17;;;;;;;;;;;;;;;;;;5036229;28;7011;-79
2022/11/19 14:08:21;;;;;;;;;;;;;;;;;;5052287;28;7133;-79
2022/11/19 14:10:47;;;;;;;;;;;;;;;;;;5055976;28;7053;-79
2022/11/19 14:13:33;;;;;;;;;;;;;;;;;;5055827;28;6959;-79
2022/11/19 14:27:34;;;;;;;;;;;;;;;;;;5055703;28;6935;-79
2022/11/19 14:30:03;;;;;;;;;;;;;;;;;;5055576;28;7072;-78
2022/11/19 14:32:33;;;;;;;;;;;;;;;;;;5055459;28;7128;-78
2022/11/19 14:34:59;;;;;;;;;;;;;;;;;;5055157;28;6957;-78
2022/11/19 14:37:32;;;;;;;;;;;;;;;;;;5055023;28;7213;-78
2022/11/19 14:40:00;;;;;;;;;;;;;;;;;;5055321;28;7223;-79
2022/11/19 14:46:03;;;;;;;;;;;;;;;;;;5036897;28;7078;-79
2022/11/19 14:48:31;;;;;;;;;;;;;;;;;;5054975;28;7390;-79
2022/11/19 14:51:26;;;;;;;;;;;;;;;;;;5055100;28;6960;-78
2022/11/19 14:53:57;;;;;;;;;;;;;;;;;;5055068;28;7262;-80
2022/11/19 14:56:23;;;;;;;;;;;;;;;;;;5055068;28;7242;-80
2022/11/19 14:58:56;;;;;;;;;;;;;;;;;;5055248;28;7084;-80
2022/11/19 15:01:23;;;;;;;;;;;;;;;;;;5054593;28;7201;-79
2022/11/19 15:03:55;;;;;;;;;;;;;;;;;;5055152;28;7101;-78
2022/11/19 15:06:33;;;;;;;;;;;;;;;;;;5053672;28;7187;-83
2022/11/19 15:09:00;;;;;;;;;;;;;;;;;;5054974;28;7422;-84
2022/11/19 15:11:45;;;;;;;;;;;;;;;;;;5054984;28;7136;-82
2022/11/19 15:14:28;;;;;;;;;;;;;;;;;;5054817;28;8243;-83
2022/11/19 15:16:57;;;;;;;;;;;;;;;;;;5054370;28;7180;-84
2022/11/19 15:19:45;;;;;;;;;;;;;;;;;;5053945;28;7121;-79
2022/11/19 15:22:27;;;;;;;;;;;;;;;;;;5054610;28;6985;-79
2022/11/19 15:27:45;;;;;;;;;;;;;;;;;;5054704;28;6919;-79
2022/11/19 15:30:16;;;;;;;;;;;;;;;;;;5054031;28;7032;-79
2022/11/19 15:33:13;;;;;;;;;;;;;;;;;;5054947;28;7221;-79
2022/11/19 15:38:51;;;;;;;;;;;;;;;;;;5054373;28;6796;-79
2022/11/19 15:41:23;;;;;;;;;;;;;;;;;;5054423;28;7095;-80
2022/11/19 15:43:55;;;;;;;;;;;;;;;;;;5054598;28;7055;-79
2022/11/19 15:46:55;;;;;;;;;;;;;;;;;;5054319;28;7181;-79
2022/11/19 15:49:25;;;;;;;;;;;;;;;;;;5031037;28;7188;-79
2022/11/19 15:52:11;;;;;;;;;;;;;;;;;;5054965;28;6926;-79
2022/11/19 15:54:38;;;;;;;;;;;;;;;;;;5053996;28;7448;-79
2022/11/19 15:57:27;;;;;;;;;;;;;;;;;;5054133;28;7330;-79
2022/11/19 15:59:56;;;;;;;;;;;;;;;;;;5053723;28;6899;-79
2022/11/19 16:02:28;;;;;;;;;;;;;;;;;;5054082;28;7266;-81
2022/11/19 16:04:54;;;;;;;;;;;;;;;;;;5054083;28;6956;-79
2022/11/19 16:07:24;;;;;;;;;;;;;;;;;;5050520;28;7055;-79
2022/11/19 16:09:50;;;;;;;;;;;;;;;;;;5053869;28;7177;-79
2022/11/19 16:18:17;;;;;;;;;;;;;;;;;;5034393;28;6911;-79
2022/11/19 16:20:48;;;;;;;;;;;;;;;;;;5034152;28;7261;-79
2022/11/19 16:23:22;;;;;;;;;;;;;;;;;;5033874;28;7047;-79
2022/11/19 16:25:49;;;;;;;;;;;;;;;;;;5033895;28;7161;-79
2022/11/19 16:28:21;;;;;;;;;;;;;;;;;;5034449;28;6821;-79
2022/11/19 16:30:49;;;;;;;;;;;;;;;;;;5035479;28;7220;-79
2022/11/19 16:33:26;;;;;;;;;;;;;;;;;;5037313;28;7133;-79
2022/11/19 16:35:56;;;;;;;;;;;;;;;;;;5037936;28;7148;-79
2022/11/19 16:38:27;;;;;;;;;;;;;;;;;;5037479;28;6989;-79
2022/11/19 16:43:43;;;;;;;;;;;;;;;;;;5038200;28;7037;-79
2022/11/19 16:46:13;;;;;;;;;;;;;;;;;;5037699;28;7132;-79
2022/11/19 16:48:38;;;;;;;;;;;;;;;;;;5037504;28;6813;-80
2022/11/19 16:51:34;;;;;;;;;;;;;;;;;;5037388;28;7371;-80
2022/11/19 16:54:01;;;;;;;;;;;;;;;;;;5037176;28;7182;-80
2022/11/19 16:56:35;;;;;;;;;;;;;;;;;;5037908;28;7337;-80
2022/11/19 16:59:29;;;;;;;;;;;;;;;;;;5037052;28;7026;-79
2022/11/19 17:01:57;;;;;;;;;;;;;;;;;;5034695;28;7061;-80
2022/11/19 17:04:32;;;;;;;;;;;;;;;;;;5035897;28;8560;-80
2022/11/19 17:07:13;;;;;;;;;;;;;;;;;;5036631;28;7050;-79
2022/11/19 17:09:43;;;;;;;;;;;;;;;;;;5037113;28;7127;-79
2022/11/19 17:12:31;;;;;;;;;;;;;;;;;;5037025;28;6851;-79
2022/11/19 17:14:58;;;;;;;;;;;;;;;;;;5043981;28;7091;-79
2022/11/19 17:17:38;;;;;;;;;;;;;;;;;;5056971;28;6918;-79
2022/11/19 17:20:26;;;;;;;;;;;;;;;;;;5057248;28;7205;-79
2022/11/19 17:23:00;;;;;;;;;;;;;;;;;;5056305;28;7436;-79
2022/11/19 17:25:26;;;;;;;;;;;;;;;;;;5056284;28;7056;-79
2022/11/19 17:27:57;;;;;;;;;;;;;;;;;;5056624;28;7116;-79
2022/11/19 17:30:26;;;;;;;;;;;;;;;;;;5056743;28;7070;-79
2022/11/19 17:32:55;;;;;;;;;;;;;;;;;;5056380;28;6975;-79
2022/11/19 17:36:06;;;;;;;;;;;;;;;;;;5056596;28;7055;-79
2022/11/19 17:38:33;;;;;;;;;;;;;;;;;;4995136;28;7068;-79
2022/11/19 17:41:02;;;;;;;;;;;;;;;;;;4978583;28;8429;-84
2022/11/19 17:46:17;;;;;;;;;;;;;;;;;;4995436;28;6949;-84
2022/11/19 17:48:44;;;;;;;;;;;;;;;;;;4995078;28;7229;-83
2022/11/19 17:51:26;;;;;;;;;;;;;;;;;;4995251;28;7263;-84
2022/11/19 17:53:56;;;;;;;;;;;;;;;;;;4996121;28;7130;-84
2022/11/19 17:56:22;;;;;;;;;;;;;;;;;;4995179;28;8632;-84
2022/11/19 17:58:49;;;;;;;;;;;;;;;;;;4994305;28;7960;-84
2022/11/19 18:01:15;;;;;;;;;;;;;;;;;;4994876;28;6960;-84
2022/11/19 18:03:43;;;;;;;;;;;;;;;;;;4995226;28;6982;-84
2022/11/19 18:06:12;;;;;;;;;;;;;;;;;;4994476;28;7075;-84
2022/11/19 18:08:40;;;;;;;;;;;;;;;;;;5009421;28;6979;-84
2022/11/19 18:11:15;;;;;;;;;;;;;;;;;;5055859;28;7132;-84
2022/11/19 18:13:41;;;;;;;;;;;;;;;;;;5054954;28;7071;-85
2022/11/19 18:19:12;;;;;;;;;;;;;;;;;;5055502;28;6951;-84
2022/11/19 18:21:39;;;;;;;;;;;;;;;;;;5056391;28;7404;-85
2022/11/19 18:24:05;;;;;;;;;;;;;;;;;;5055613;28;6986;-86
2022/11/19 18:26:43;;;;;;;;;;;;;;;;;;5055616;28;7116;-86
2022/11/19 18:29:12;;;;;;;;;;;;;;;;;;5055143;28;6882;-86
2022/11/19 18:31:42;;;;;;;;;;;;;;;;;;5055182;28;7230;-85
2022/11/19 18:34:12;;;;;;;;;;;;;;;;;;5055552;28;7058;-85
2022/11/19 18:36:38;;;;;;;;;;;;;;;;;;5055265;28;7155;-79
2022/11/19 18:39:03;;;;;;;;;;;;;;;;;;5054973;28;7037;-79
2022/11/19 18:41:29;;;;;;;;;;;;;;;;;;5055188;28;8177;-79
2022/11/19 18:46:39;;;;;;;;;;;;;;;;;;5055464;28;6792;-80
2022/11/19 18:49:04;;;;;;;;;;;;;;;;;;5055104;28;7117;-80
2022/11/19 18:51:45;;;;;;;;;;;;;;;;;;5056003;28;7020;-80
2022/11/19 18:54:12;;;;;;;;;;;;;;;;;;5054725;28;7221;-80
2022/11/19 18:56:38;;;;;;;;;;;;;;;;;;5054941;28;6995;-86
2022/11/19 18:59:04;;;;;;;;;;;;;;;;;;5054961;28;6943;-86
2022/11/19 19:01:54;;;;;;;;;;;;;;;;;;5055199;28;7156;-86
2022/11/19 19:04:20;;;;;;;;;;;;;;;;;;5055110;28;7001;-86
2022/11/19 19:06:53;;;;;;;;;;;;;;;;;;5055114;28;7200;-85
2022/11/19 19:09:19;;;;;;;;;;;;;;;;;;5055851;28;7331;-85
2022/11/19 19:14:30;;;;;;;;;;;;;;;;;;5054856;28;6793;-86
2022/11/19 19:16:55;;;;;;;;;;;;;;;;;;5053854;28;8375;-85
2022/11/19 19:19:21;;;;;;;;;;;;;;;;;;5051484;28;6967;-86
2022/11/19 19:21:46;;;;;;;;;;;;;;;;;;5034467;28;7054;-85
2022/11/19 19:24:13;;;;;;;;;;;;;;;;;;5035392;28;7024;-85
2022/11/19 19:26:38;;;;;;;;;;;;;;;;;;5034616;28;7238;-86
2022/11/19 19:29:05;;;;;;;;;;;;;;;;;;5035465;28;7212;-86
2022/11/19 19:31:49;;;;;;;;;;;;;;;;;;5034897;28;7311;-80
2022/11/19 19:34:15;;;;;;;;;;;;;;;;;;5034489;28;7198;-88
2022/11/19 19:36:53;;;;;;;;;;;;;;;;;;5036300;28;6994;-81
2022/11/19 19:39:18;;;;;;;;;;;;;;;;;;5040491;28;7288;-80
2022/11/19 19:41:50;;;;;;;;;;;;;;;;;;5043522;28;7018;-80
2022/11/19 19:44:16;;;;;;;;;;;;;;;;;;5045621;28;7287;-80
2022/11/19 19:46:42;;;;;;;;;;;;;;;;;;5044122;28;7148;-80
2022/11/19 19:49:08;;;;;;;;;;;;;;;;;;5042219;28;6867;-80
2022/11/19 19:51:35;;;;;;;;;;;;;;;;;;5034139;28;7013;-80
2022/11/19 19:54:00;;;;;;;;;;;;;;;;;;5033998;28;8107;-80
2022/11/19 19:56:28;;;;;;;;;;;;;;;;;;5035352;28;6882;-80
2022/11/19 19:58:55;;;;;;;;;;;;;;;;;;5033933;28;7313;-80
2022/11/19 20:01:24;;;;;;;;;;;;;;;;;;5033877;28;6825;-80